Observation data for Olton on 03/10/2018      Previous  Date  Next       Current Mesonet Observations  Soil Data  Daily Summary Page  Observations in Plain Language
KONS 100600Z 09007KT 08/M11 A2984 RMK A01 T00841109  RH  025%=      5-min Rain = 0
KONS 100605Z 09008KT 08/M11 A2984 RMK A01 T00811105  RH  026%=      5-min Rain = 0
KONS 100610Z 10008KT 08/M10 A2984 RMK A01 T00781102  RH  027%=      5-min Rain = 0
KONS 100615Z 10008KT 08/M10 A2983 RMK A01 T00751101  RH  028%=      5-min Rain = 0
KONS 100620Z 10008KT 07/M10 A2983 RMK A01 T00721101  RH  028%=      5-min Rain = 0
KONS 100625Z 11008KT 07/M10 A2983 RMK A01 T00711103  RH  028%=      5-min Rain = 0
KONS 100630Z 10008KT 07/M10 A2983 RMK A01 T00711103  RH  028%=      5-min Rain = 0
KONS 100635Z 10007KT 07/M10 A2983 RMK A01 T00711099  RH  029%=      5-min Rain = 0
KONS 100640Z 10007KT 07/M10 A2983 RMK A01 T00691097  RH  030%=      5-min Rain = 0
KONS 100645Z 11006KT 07/M10 A2983 RMK A01 T00721098  RH  029%=      5-min Rain = 0
KONS 100650Z 11006KT 08/M10 A2984 RMK A01 T00791098  RH  028%=      5-min Rain = 0
KONS 100655Z 11006KT 08/M10 A2984 RMK A01 T00801099  RH  027%=      5-min Rain = 0
KONS 100700Z 11006KT 08/M10 A2983 RMK A01 T00781097  RH  028%=      5-min Rain = 0
KONS 100705Z 11006KT 08/M10 A2983 RMK A01 T00771097  RH  028%=      5-min Rain = 0
KONS 100710Z 11006KT 08/M10 A2983 RMK A01 T00761098  RH  028%=      5-min Rain = 0
KONS 100715Z 11006KT 08/M10 A2983 RMK A01 T00751097  RH  029%=      5-min Rain = 0
KONS 100720Z 11006KT 08/M10 A2983 RMK A01 T00751097  RH  029%=      5-min Rain = 0
KONS 100725Z 11006KT 08/M10 A2983 RMK A01 T00751095  RH  029%=      5-min Rain = 0
KONS 100730Z 11006KT 07/M09 A2983 RMK A01 T00741093  RH  030%=      5-min Rain = 0
KONS 100735Z 11006KT 07/M09 A2983 RMK A01 T00731094  RH  030%=      5-min Rain = 0
KONS 100740Z 11005KT 07/M09 A2983 RMK A01 T00721093  RH  030%=      5-min Rain = 0
KONS 100745Z 12005KT 07/M09 A2983 RMK A01 T00731088  RH  031%=      5-min Rain = 0
KONS 100750Z 13005KT 07/M09 A2983 RMK A01 T00721086  RH  032%=      5-min Rain = 0
KONS 100755Z 14005KT 07/M09 A2983 RMK A01 T00661089  RH  033%=      5-min Rain = 0
KONS 100800Z 15005KT 06/M08 A2983 RMK A01 T00571082  RH  037%=      5-min Rain = 0
KONS 100805Z 16005KT 05/M07 A2982 RMK A01 T00501074  RH  041%=      5-min Rain = 0
KONS 100810Z 17005KT 05/M08 A2983 RMK A01 T00451076  RH  041%=      5-min Rain = 0
KONS 100815Z 18005KT 04/M08 A2983 RMK A01 T00421075  RH  043%=      5-min Rain = 0
KONS 100820Z 18005KT 04/M07 A2982 RMK A01 T00381067  RH  047%=      5-min Rain = 0
KONS 100825Z 18005KT 04/M07 A2982 RMK A01 T00361066  RH  048%=      5-min Rain = 0
KONS 100830Z 20005KT 04/M06 A2982 RMK A01 T00361063  RH  049%=      5-min Rain = 0
KONS 100835Z 18005KT 04/M06 A2982 RMK A01 T00361061  RH  050%=      5-min Rain = 0
KONS 100840Z 19006KT 04/M06 A2982 RMK A01 T00391062  RH  048%=      5-min Rain = 0
KONS 100845Z 22007KT 04/M06 A2982 RMK A01 T00351058  RH  051%=      5-min Rain = 0
KONS 100850Z 21007KT 03/M06 A2981 RMK A01 T00311057  RH  053%=      5-min Rain = 0
KONS 100855Z 23008KT 03/M06 A2981 RMK A01 T00291055  RH  054%=      5-min Rain = 0
KONS 100900Z 22008KT 03/M06 A2981 RMK A01 T00291055  RH  055%=      5-min Rain = 0
KONS 100905Z 22008KT 03/M05 A2981 RMK A01 T00261052  RH  057%=      5-min Rain = 0
KONS 100910Z 23009KT 03/M06 A2981 RMK A01 T00261056  RH  056%=      5-min Rain = 0
KONS 100915Z 23009KT 03/M06 A2981 RMK A01 T00281055  RH  055%=      5-min Rain = 0
KONS 100920Z 23009KT 03/M05 A2981 RMK A01 T00261054  RH  056%=      5-min Rain = 0
KONS 100925Z 22009KT 03/M06 A298 RMK A01 T00261056  RH  055%=      5-min Rain = 0
KONS 100930Z 24008KT 03/M05 A2981 RMK A01 T00251054  RH  057%=      5-min Rain = 0
KONS 100935Z 23009KT 03/M06 A298 RMK A01 T00281059  RH  053%=      5-min Rain = 0
KONS 100940Z 24010KT 03/M06 A2981 RMK A01 T00341060  RH  051%=      5-min Rain = 0
KONS 100945Z 24010KT 03/M05 A2981 RMK A01 T00311052  RH  055%=      5-min Rain = 0
KONS 100950Z 23010KT 03/M05 A2981 RMK A01 T00251050  RH  058%=      5-min Rain = 0
KONS 100955Z 24008KT 02/M06 A2981 RMK A01 T00241055  RH  056%=      5-min Rain = 0
KONS 101000Z 25009KT 03/M05 A2982 RMK A01 T00261053  RH  056%=      5-min Rain = 0
KONS 101005Z 25010KT 03/M06 A2982 RMK A01 T00281058  RH  054%=      5-min Rain = 0
KONS 101010Z 25009KT 03/M06 A2982 RMK A01 T00321061  RH  051%=      5-min Rain = 0
KONS 101015Z 25009KT 03/M06 A2982 RMK A01 T00341062  RH  050%=      5-min Rain = 0
KONS 101020Z 25009KT 03/M06 A2982 RMK A01 T00331062  RH  050%=      5-min Rain = 0
KONS 101025Z 26009KT 03/M06 A2982 RMK A01 T00341064  RH  049%=      5-min Rain = 0
KONS 101030Z 27008KT 03/M06 A2982 RMK A01 T00321062  RH  051%=      5-min Rain = 0
KONS 101035Z 27009KT 03/M06 A2982 RMK A01 T00321061  RH  051%=      5-min Rain = 0
KONS 101040Z 27009KT 04/M06 A2982 RMK A01 T00351062  RH  049%=      5-min Rain = 0
KONS 101045Z 27009KT 04/M06 A2982 RMK A01 T00401064  RH  047%=      5-min Rain = 0
KONS 101050Z 27008KT 04/M07 A2982 RMK A01 T00411065  RH  047%=      5-min Rain = 0
KONS 101055Z 26009KT 04/M07 A2982 RMK A01 T00401065  RH  047%=      5-min Rain = 0
KONS 101100Z 26009KT 04/M07 A2982 RMK A01 T00411066  RH  046%=      5-min Rain = 0
KONS 101105Z 27009KT 04/M07 A2982 RMK A01 T00391066  RH  047%=      5-min Rain = 0
KONS 101110Z 27009KT 04/M07 A2981 RMK A01 T00371068  RH  047%=      5-min Rain = 0
KONS 101115Z 27009KT 04/M07 A2981 RMK A01 T00361067  RH  047%=      5-min Rain = 0
KONS 101120Z 28008KT 03/M06 A2982 RMK A01 T00341062  RH  050%=      5-min Rain = 0
KONS 101125Z 28008KT 03/M06 A2982 RMK A01 T00311056  RH  053%=      5-min Rain = 0
KONS 101130Z 28008KT 03/M06 A2982 RMK A01 T00271055  RH  055%=      5-min Rain = 0
KONS 101135Z 29008KT 02/M06 A2983 RMK A01 T00221055  RH  058%=      5-min Rain = 0
KONS 101140Z 29008KT 02/M06 A2983 RMK A01 T00201061  RH  055%=      5-min Rain = 0
KONS 101145Z 29008KT 02/M06 A2982 RMK A01 T00211062  RH  055%=      5-min Rain = 0
KONS 101150Z 29008KT 02/M06 A2983 RMK A01 T00221062  RH  054%=      5-min Rain = 0
KONS 101155Z 29008KT 02/M06 A2983 RMK A01 T00231063  RH  054%=      5-min Rain = 0
KONS 101200Z 28008KT 02/M06 A2982 RMK A01 T00241063  RH  053%=      5-min Rain = 0
KONS 101205Z 27009KT 03/M07 A2982 RMK A01 T00251065  RH  052%=      5-min Rain = 0
KONS 101210Z 26009KT 03/M07 A2982 RMK A01 T00281069  RH  050%=      5-min Rain = 0
KONS 101215Z 26010KT 03/M07 A2983 RMK A01 T00291065  RH  051%=      5-min Rain = 0
KONS 101220Z 26011KT 03/M06 A2983 RMK A01 T00281061  RH  052%=      5-min Rain = 0
KONS 101225Z 25011KT 03/M06 A2982 RMK A01 T00271057  RH  055%=      5-min Rain = 0
KONS 101230Z 25011KT 03/M05 A2982 RMK A01 T00261054  RH  056%=      5-min Rain = 0
KONS 101235Z 25011KT 03/M05 A2983 RMK A01 T00271054  RH  056%=      5-min Rain = 0
KONS 101240Z 25011KT 03/M06 A2982 RMK A01 T00261056  RH  055%=      5-min Rain = 0
KONS 101245Z 25011KT 03/M06 A2982 RMK A01 T00281057  RH  054%=      5-min Rain = 0
KONS 101250Z 26011KT 03/M06 A2983 RMK A01 T00301061  RH  052%=      5-min Rain = 0
KONS 101255Z 27010KT 03/M06 A2983 RMK A01 T00331063  RH  050%=      5-min Rain = 0
KONS 101300Z 27008KT 03/M06 A2983 RMK A01 T00311062  RH  051%=      5-min Rain = 0
KONS 101305Z 27009KT 03/M06 A2983 RMK A01 T00291062  RH  052%=      5-min Rain = 0
KONS 101310Z 27009KT 03/M07 A2983 RMK A01 T00331066  RH  049%=      5-min Rain = 0
KONS 101315Z 27009KT 04/M07 A2983 RMK A01 T00381065  RH  047%=      5-min Rain = 0
KONS 101320Z 27010KT 04/M07 A2983 RMK A01 T00431067  RH  045%=      5-min Rain = 0
KONS 101325Z 27010KT 05/M07 A2984 RMK A01 T00491071  RH  042%=      5-min Rain = 0
KONS 101330Z 27010KT 05/M08 A2984 RMK A01 T00521075  RH  040%=      5-min Rain = 0
KONS 101335Z 27009KT 05/M07 A2984 RMK A01 T00511072  RH  041%=      5-min Rain = 0
KONS 101340Z 28008KT 05/M06 A2984 RMK A01 T00471064  RH  045%=      5-min Rain = 0
KONS 101345Z 28007KT 05/M06 A2984 RMK A01 T00471060  RH  046%=      5-min Rain = 0
KONS 101350Z 27006KT 05/M06 A2984 RMK A01 T00501059  RH  046%=      5-min Rain = 0
KONS 101355Z 26006KT 05/M06 A2984 RMK A01 T00541060  RH  044%=      5-min Rain = 0
KONS 101400Z 25008KT 06/M05 A2984 RMK A01 T00571052  RH  046%=      5-min Rain = 0
KONS 101405Z 25009KT 06/M05 A2984 RMK A01 T00581052  RH  046%=      5-min Rain = 0
KONS 101410Z 26008KT 06/M05 A2984 RMK A01 T00631048  RH  045%=      5-min Rain = 0
KONS 101415Z 26008KT 07/M05 A2984 RMK A01 T00671045  RH  045%=      5-min Rain = 0
KONS 101420Z 26010KT 07/M06 A2983 RMK A01 T00741061  RH  038%=      5-min Rain = 0
KONS 101425Z 26009KT 08/M07 A2984 RMK A01 T00781070  RH  035%=      5-min Rain = 0
KONS 101430Z 27008KT 08/M06 A2984 RMK A01 T00811064  RH  035%=      5-min Rain = 0
KONS 101435Z 27008KT 09/M07 A2984 RMK A01 T00861066  RH  034%=      5-min Rain = 0
KONS 101440Z 28008KT 09/M06 A2984 RMK A01 T00931064  RH  033%=      5-min Rain = 0
KONS 101445Z 28008KT 10/M06 A2984 RMK A01 T01031061  RH  032%=      5-min Rain = 0
KONS 101450Z 27009KT 12/M07 A2984 RMK A01 T01161071  RH  027%=      5-min Rain = 0
KONS 101455Z 26011KT 12/M08 A2984 RMK A01 T01201080  RH  024%=      5-min Rain = 0
KONS 101500Z 27009KT 13/M09 A2984 RMK A01 T01251085  RH  023%=      5-min Rain = 0
KONS 101505Z 27009KT 13/M08 A2984 RMK A01 T01281084  RH  022%=      5-min Rain = 0
KONS 101510Z 27009KT 13/M08 A2984 RMK A01 T01311079  RH  023%=      5-min Rain = 0
KONS 101515Z 27009KT 14/M08 A2984 RMK A01 T01351078  RH  022%=      5-min Rain = 0
KONS 101520Z 28009KT 14/M08 A2984 RMK A01 T01421077  RH  021%=      5-min Rain = 0
KONS 101525Z 29010KT 15/M09 A2984 RMK A01 T01521092  RH  018%=      5-min Rain = 0
KONS 101530Z 28010KT 16/M10 A2984 RMK A01 T01611095  RH  016%=      5-min Rain = 0
KONS 101535Z 28010KT 17/M10 A2984 RMK A01 T01711096  RH  015%=      5-min Rain = 0
KONS 101540Z 28010KT 18/M09 A2984 RMK A01 T01751094  RH  015%=      5-min Rain = 0
KONS 101545Z 28009KT 18/M09 A2984 RMK A01 T01751087  RH  016%=      5-min Rain = 0
KONS 101550Z 28010KT 18/M09 A2984 RMK A01 T01761088  RH  016%=      5-min Rain = 0
KONS 101555Z 28010KT 18/M10 A2984 RMK A01 T01821099  RH  014%=      5-min Rain = 0
KONS 101600Z 28010KT 18/M10 A2984 RMK A01 T01821103  RH  014%=      5-min Rain = 0
KONS 101605Z 28011KT 19/M10 A2984 RMK A01 T01861104  RH  013%=      5-min Rain = 0
KONS 101610Z 29012KT 19/M11 A2984 RMK A01 T01901105  RH  013%=      5-min Rain = 0
KONS 101615Z 30013KT 19/M11 A2984 RMK A01 T01931106  RH  012%=      5-min Rain = 0
KONS 101620Z 30013KT 19/M10 A2984 RMK A01 T01941098  RH  013%=      5-min Rain = 0
KONS 101625Z 30013KT 20/M10 A2984 RMK A01 T01971099  RH  013%=      5-min Rain = 0
KONS 101630Z 31014KT 19/M09 A2984 RMK A01 T01931094  RH  014%=      5-min Rain = 0
KONS 101635Z 29013KT 19/M09 A2984 RMK A01 T01931092  RH  014%=      5-min Rain = 0
KONS 101640Z 30012KT 19/M09 A2984 RMK A01 T01931089  RH  014%=      5-min Rain = 0
KONS 101645Z 29012KT 20/M09 A2984 RMK A01 T01961089  RH  014%=      5-min Rain = 0
KONS 101650Z 29011KT 20/M09 A2984 RMK A01 T01971086  RH  014%=      5-min Rain = 0
KONS 101655Z 30012G17KT 20/M09 A2984 RMK A01 T01991090  RH  014%=      5-min Rain = 0
KONS 101700Z 29012KT 21/M09 A2984 RMK A01 T02051089  RH  013%=      5-min Rain = 0
KONS 101705Z 30013G18KT 21/M09 A2984 RMK A01 T02111089  RH  013%=      5-min Rain = 0
KONS 101710Z 30012G17KT 21/M09 A2984 RMK A01 T02141088  RH  012%=      5-min Rain = 0
KONS 101715Z 30014G19KT 21/M09 A2984 RMK A01 T02141091  RH  012%=      5-min Rain = 0
KONS 101720Z 31015KT 22/M09 A2984 RMK A01 T02151091  RH  012%=      5-min Rain = 0
KONS 101725Z 31011KT 22/M09 A2984 RMK A01 T02191089  RH  012%=      5-min Rain = 0
KONS 101730Z 31012G17KT 22/M09 A2984 RMK A01 T02241090  RH  012%=      5-min Rain = 0
KONS 101735Z 31013KT 23/M10 A2984 RMK A01 T02271096  RH  011%=      5-min Rain = 0
KONS 101740Z 30012G18KT 23/M10 A2984 RMK A01 T02281099  RH  011%=      5-min Rain = 0
KONS 101745Z 30010KT 23/M10 A2984 RMK A01 T02331101  RH  010%=      5-min Rain = 0
KONS 101750Z 28011G16KT 23/M11 A2984 RMK A01 T02341107  RH  010%=      5-min Rain = 0
KONS 101755Z 31012G17KT 24/M12 A2984 RMK A01 T02361116  RH  009%=      5-min Rain = 0
KONS 101800Z 30011G16KT 24/M12 A2983 RMK A01 T02371118  RH  009%=      5-min Rain = 0
KONS 101805Z 30010G17KT 24/M13 A2983 RMK A01 T02391128  RH  008%=      5-min Rain = 0
KONS 101810Z 29014G21KT 24/M13 A2983 RMK A01 T02411128  RH  008%=      5-min Rain = 0
KONS 101815Z 29012G18KT 24/M13 A2983 RMK A01 T02441134  RH  007%=      5-min Rain = 0
KONS 101820Z 29012G17KT 25/M13 A2983 RMK A01 T02461131  RH  007%=      5-min Rain = 0
KONS 101825Z 28014KT 25/M14 A2983 RMK A01 T02451142  RH  007%=      5-min Rain = 0
KONS 101830Z 29011G17KT 24/M15 A2983 RMK A01 T02421146  RH  007%=      5-min Rain = 0
KONS 101835Z 32013G18KT 25/M14 A2983 RMK A01 T02451143  RH  007%=      5-min Rain = 0
KONS 101840Z 31009G19KT 25/M14 A2983 RMK A01 T02451143  RH  007%=      5-min Rain = 0
KONS 101845Z 31012G22KT 25/M14 A2982 RMK A01 T02451144  RH  007%=      5-min Rain = 0
KONS 101850Z 30012G17KT 25/M14 A2982 RMK A01 T02451141  RH  007%=      5-min Rain = 0
KONS 101855Z 30013KT 25/M14 A2981 RMK A01 T02471136  RH  007%=      5-min Rain = 0
KONS 101900Z 30010G16KT 25/M14 A2981 RMK A01 T02481136  RH  007%=      5-min Rain = 0
KONS 101905Z 30008G14KT 25/M13 A2981 RMK A01 T02481134  RH  007%=      5-min Rain = 0
KONS 101910Z 27013G22KT 25/M13 A298 RMK A01 T02531130  RH  007%=      5-min Rain = 0
KONS 101915Z 27011G19KT 25/M14 A298 RMK A01 T02501138  RH  007%=      5-min Rain = 0
KONS 101920Z 30008G16KT 25/M14 A298 RMK A01 T02501143  RH  007%=      5-min Rain = 0
KONS 101925Z 31011G17KT 25/M13 A298 RMK A01 T02501133  RH  007%=      5-min Rain = 0
KONS 101930Z 31014G19KT 25/M13 A298 RMK A01 T02521132  RH  007%=      5-min Rain = 0
KONS 101935Z 31013G19KT 25/M13 A2979 RMK A01 T02521133  RH  007%=      5-min Rain = 0
KONS 101940Z 29011KT 25/M14 A2979 RMK A01 T02501139  RH  007%=      5-min Rain = 0
KONS 101945Z 29011G22KT 25/M13 A2978 RMK A01 T02531132  RH  007%=      5-min Rain = 0
KONS 101950Z 30015G23KT 26/M13 A2978 RMK A01 T02551127  RH  007%=      5-min Rain = 0
KONS 101955Z 33010KT 25/M14 A2978 RMK A01 T02521137  RH  007%=      5-min Rain = 0
KONS 102000Z 31013G19KT 25/M13 A2978 RMK A01 T02521132  RH  007%=      5-min Rain = 0
KONS 102005Z 31011KT 26/M13 A2978 RMK A01 T02551129  RH  007%=      5-min Rain = 0
KONS 102010Z 29009G16KT 26/M13 A2978 RMK A01 T02551128  RH  007%=      5-min Rain = 0
KONS 102015Z 28011G19KT 26/M13 A2977 RMK A01 T02581126  RH  007%=      5-min Rain = 0
KONS 102020Z 30011G21KT 26/M13 A2977 RMK A01 T02581130  RH  007%=      5-min Rain = 0
KONS 102025Z 29015KT 25/M13 A2977 RMK A01 T02541131  RH  007%=      5-min Rain = 0
KONS 102030Z 27011G16KT 26/M13 A2978 RMK A01 T02551130  RH  007%=      5-min Rain = 0
KONS 102035Z 28010G17KT 26/M13 A2977 RMK A01 T02581128  RH  007%=      5-min Rain = 0
KONS 102040Z 31012G17KT 26/M13 A2977 RMK A01 T02571127  RH  007%=      5-min Rain = 0
KONS 102045Z 30012G20KT 26/M13 A2977 RMK A01 T02571125  RH  007%=      5-min Rain = 0
KONS 102050Z 29012KT 25/M13 A2977 RMK A01 T02541130  RH  007%=      5-min Rain = 0
KONS 102055Z 30012G20KT 26/M13 A2977 RMK A01 T02571126  RH  007%=      5-min Rain = 0
KONS 102100Z 31011G16KT 25/M13 A2977 RMK A01 T02541125  RH  007%=      5-min Rain = 0
KONS 102105Z 29013G19KT 26/M12 A2977 RMK A01 T02581122  RH  007%=      5-min Rain = 0
KONS 102110Z 29011G18KT 26/M12 A2977 RMK A01 T02571117  RH  008%=      5-min Rain = 0
KONS 102115Z 32012G18KT 26/M13 A2977 RMK A01 T02581127  RH  007%=      5-min Rain = 0
KONS 102120Z 31010G17KT 26/M12 A2977 RMK A01 T02561123  RH  007%=      5-min Rain = 0
KONS 102125Z 29013G19KT 26/M12 A2977 RMK A01 T02571121  RH  007%=      5-min Rain = 0
KONS 102130Z 29006G12KT 25/M13 A2977 RMK A01 T02531128  RH  007%=      5-min Rain = 0
KONS 102135Z 25011KT 26/M12 A2977 RMK A01 T02561121  RH  007%=      5-min Rain = 0
KONS 102140Z 28008KT 26/M12 A2977 RMK A01 T02581123  RH  007%=      5-min Rain = 0
KONS 102145Z 29009G15KT 26/M12 A2977 RMK A01 T02561120  RH  008%=      5-min Rain = 0
KONS 102150Z 30011KT 26/M12 A2976 RMK A01 T02561120  RH  008%=      5-min Rain = 0
KONS 102155Z 30010KT 25/M13 A2976 RMK A01 T02541125  RH  007%=      5-min Rain = 0
KONS 102200Z 31009KT 25/M11 A2976 RMK A01 T02541114  RH  008%=      5-min Rain = 0
KONS 102205Z 30010G17KT 25/M11 A2976 RMK A01 T02541108  RH  008%=      5-min Rain = 0
KONS 102210Z 28011KT 25/M11 A2976 RMK A01 T02531107  RH  009%=      5-min Rain = 0
KONS 102215Z 27009KT 25/M11 A2976 RMK A01 T02501110  RH  009%=      5-min Rain = 0
KONS 102220Z 26012KT 25/M11 A2976 RMK A01 T02511109  RH  009%=      5-min Rain = 0
KONS 102225Z 26012KT 25/M10 A2976 RMK A01 T02501103  RH  009%=      5-min Rain = 0
KONS 102230Z 26012G19KT 25/M10 A2976 RMK A01 T02511095  RH  010%=      5-min Rain = 0
KONS 102235Z 29012G18KT 25/M11 A2976 RMK A01 T02511112  RH  008%=      5-min Rain = 0
KONS 102240Z 28011G16KT 25/M11 A2977 RMK A01 T02501113  RH  008%=      5-min Rain = 0
KONS 102245Z 28011G17KT 25/M10 A2977 RMK A01 T02511102  RH  009%=      5-min Rain = 0
KONS 102250Z 29012KT 25/M11 A2977 RMK A01 T02511114  RH  008%=      5-min Rain = 0
KONS 102255Z 28008KT 25/M11 A2977 RMK A01 T02501108  RH  009%=      5-min Rain = 0
KONS 102300Z 27011KT 25/M12 A2977 RMK A01 T02481116  RH  008%=      5-min Rain = 0
KONS 102305Z 27012KT 25/M12 A2977 RMK A01 T02481124  RH  008%=      5-min Rain = 0
KONS 102310Z 28012KT 25/M10 A2977 RMK A01 T02451104  RH  009%=      5-min Rain = 0
KONS 102315Z 29012G17KT 24/M11 A2977 RMK A01 T02421111  RH  009%=      5-min Rain = 0
KONS 102320Z 28008KT 24/M11 A2977 RMK A01 T02411107  RH  009%=      5-min Rain = 0
KONS 102325Z 28012KT 24/M11 A2977 RMK A01 T02391113  RH  009%=      5-min Rain = 0
KONS 102330Z 29010KT 24/M12 A2977 RMK A01 T02391120  RH  008%=      5-min Rain = 0
KONS 102335Z 28009KT 24/M10 A2977 RMK A01 T02361103  RH  010%=      5-min Rain = 0
KONS 102340Z 26008KT 23/M10 A2978 RMK A01 T02331096  RH  010%=      5-min Rain = 0
KONS 102345Z 25008KT 23/M07 A2978 RMK A01 T02271071  RH  013%=      5-min Rain = 0
KONS 102350Z 26008KT 22/M08 A2978 RMK A01 T02221080  RH  013%=      5-min Rain = 0
KONS 102355Z 26009G15KT 22/M09 A2978 RMK A01 T02241085  RH  012%=      5-min Rain = 0
KONS 110000Z 26011KT 22/M09 A2978 RMK A01 T02231093  RH  011%=      5-min Rain = 0
KONS 110005Z 26009KT 22/M09 A2978 RMK A01 T02201090  RH  012%=      5-min Rain = 0
KONS 110010Z 26008KT 22/M09 A2978 RMK A01 T02171088  RH  012%=      5-min Rain = 0
KONS 110015Z 26008KT 22/M10 A2979 RMK A01 T02151095  RH  012%=      5-min Rain = 0
KONS 110020Z 27008KT 22/M10 A2979 RMK A01 T02151104  RH  011%=      5-min Rain = 0
KONS 110025Z 26008KT 22/M11 A2979 RMK A01 T02151108  RH  011%=      5-min Rain = 0
KONS 110030Z 26007KT 21/M10 A2979 RMK A01 T02131104  RH  011%=      5-min Rain = 0
KONS 110035Z 26008KT 21/M09 A2979 RMK A01 T02081087  RH  013%=      5-min Rain = 0
KONS 110040Z 26008KT 20/M07 A2979 RMK A01 T01991072  RH  016%=      5-min Rain = 0
KONS 110045Z 26008KT 20/M07 A2979 RMK A01 T01951067  RH  017%=      5-min Rain = 0
KONS 110050Z 26008KT 19/M07 A2979 RMK A01 T01921067  RH  017%=      5-min Rain = 0
KONS 110055Z 26009KT 19/M06 A298 RMK A01 T01881057  RH  019%=      5-min Rain = 0
KONS 110100Z 26009KT 19/M06 A298 RMK A01 T01851059  RH  019%=      5-min Rain = 0
KONS 110105Z 26008KT 18/M05 A298 RMK A01 T01821051  RH  020%=      5-min Rain = 0
KONS 110110Z 26008KT 18/M04 A298 RMK A01 T01761039  RH  023%=      5-min Rain = 0
KONS 110115Z 26008KT 17/M03 A298 RMK A01 T01681027  RH  026%=      5-min Rain = 0
KONS 110120Z 25008KT 17/M03 A298 RMK A01 T01651031  RH  026%=      5-min Rain = 0
KONS 110125Z 25008KT 17/M04 A298 RMK A01 T01671039  RH  024%=      5-min Rain = 0
KONS 110130Z 26008KT 17/M04 A2981 RMK A01 T01681042  RH  024%=      5-min Rain = 0
KONS 110135Z 26008KT 17/M05 A2981 RMK A01 T01671051  RH  022%=      5-min Rain = 0
KONS 110140Z 26008KT 17/M05 A2981 RMK A01 T01681054  RH  022%=      5-min Rain = 0
KONS 110145Z 25008KT 17/M05 A2981 RMK A01 T01671048  RH  023%=      5-min Rain = 0
KONS 110150Z 26008KT 17/M05 A2982 RMK A01 T01651049  RH  023%=      5-min Rain = 0
KONS 110155Z 33008KT 16/M05 A2982 RMK A01 T01621051  RH  023%=      5-min Rain = 0
KONS 110200Z 34008KT 17/M08 A2982 RMK A01 T01711079  RH  018%=      5-min Rain = 0
KONS 110205Z 35007KT 17/M07 A2983 RMK A01 T01721071  RH  019%=      5-min Rain = 0
KONS 110210Z 02009KT 17/M10 A2983 RMK A01 T01721097  RH  015%=      5-min Rain = 0
KONS 110215Z 03009KT 18/M11 A2983 RMK A01 T01771110  RH  013%=      5-min Rain = 0
KONS 110220Z 01010KT 17/M11 A2984 RMK A01 T01741110  RH  014%=      5-min Rain = 0
KONS 110225Z 36008KT 17/M11 A2984 RMK A01 T01701107  RH  014%=      5-min Rain = 0
KONS 110230Z 02011KT 17/M12 A2984 RMK A01 T01701117  RH  013%=      5-min Rain = 0
KONS 110235Z 02008G13KT 17/M12 A2985 RMK A01 T01711118  RH  013%=      5-min Rain = 0
KONS 110240Z 00008KT 17/M11 A2985 RMK A01 T01651113  RH  014%=      5-min Rain = 0
KONS 110245Z 35010KT 16/M11 A2986 RMK A01 T01601111  RH  015%=      5-min Rain = 0
KONS 110250Z 01010KT 16/M12 A2986 RMK A01 T01621116  RH  014%=      5-min Rain = 0
KONS 110255Z 02010KT 16/M12 A2987 RMK A01 T01641115  RH  014%=      5-min Rain = 0
KONS 110300Z 04011KT 16/M11 A2987 RMK A01 T01621113  RH  014%=      5-min Rain = 0
KONS 110305Z 05011KT 16/M11 A2987 RMK A01 T01581110  RH  015%=      5-min Rain = 0
KONS 110310Z 04010KT 15/M10 A2987 RMK A01 T01541101  RH  016%=      5-min Rain = 0
KONS 110315Z 05010KT 15/M10 A2987 RMK A01 T01521102  RH  016%=      5-min Rain = 0
KONS 110320Z 05011KT 15/M11 A2987 RMK A01 T01541106  RH  016%=      5-min Rain = 0
KONS 110325Z 05010KT 15/M10 A2988 RMK A01 T01531103  RH  016%=      5-min Rain = 0
KONS 110330Z 02009KT 15/M10 A2989 RMK A01 T01471101  RH  017%=      5-min Rain = 0
KONS 110335Z 00008KT 14/M10 A2989 RMK A01 T01401097  RH  019%=      5-min Rain = 0
KONS 110340Z 00009KT 13/M10 A299 RMK A01 T01341097  RH  019%=      5-min Rain = 0
KONS 110345Z 03012KT 13/M10 A299 RMK A01 T01331098  RH  019%=      5-min Rain = 0
KONS 110350Z 04016G26KT 14/M10 A299 RMK A01 T01431101  RH  018%=      5-min Rain = 0
KONS 110355Z 05018G23KT 15/M10 A2989 RMK A01 T01501101  RH  017%=      5-min Rain = 0
KONS 110400Z 05020G25KT 16/M10 A299 RMK A01 T01601103  RH  016%=      5-min Rain = 0
KONS 110405Z 04018KT 16/M10 A2991 RMK A01 T01591103  RH  016%=      5-min Rain = 0
KONS 110410Z 03018KT 16/M11 A2991 RMK A01 T01551106  RH  016%=      5-min Rain = 0
KONS 110415Z 02016KT 15/M11 A2992 RMK A01 T01501107  RH  016%=      5-min Rain = 0
KONS 110420Z 02012KT 15/M10 A2992 RMK A01 T01451104  RH  017%=      5-min Rain = 0
KONS 110425Z 03015KT 15/M10 A2992 RMK A01 T01451103  RH  017%=      5-min Rain = 0
KONS 110430Z 03016KT 15/M10 A2993 RMK A01 T01481103  RH  017%=      5-min Rain = 0
KONS 110435Z 03016KT 15/M10 A2994 RMK A01 T01491102  RH  017%=      5-min Rain = 0
KONS 110440Z 36012G17KT 15/M10 A2994 RMK A01 T01461098  RH  018%=      5-min Rain = 0
KONS 110445Z 34011KT 13/M09 A2995 RMK A01 T01331093  RH  020%=      5-min Rain = 0
KONS 110450Z 00013G18KT 13/M10 A2995 RMK A01 T01311096  RH  020%=      5-min Rain = 0
KONS 110455Z 02014KT 13/M10 A2995 RMK A01 T01331098  RH  019%=      5-min Rain = 0
KONS 110500Z 02015KT 13/M10 A2995 RMK A01 T01321098  RH  019%=      5-min Rain = 0
KONS 110505Z 01014KT 13/M09 A2996 RMK A01 T01291094  RH  021%=      5-min Rain = 0
KONS 110510Z 01012KT 12/M09 A2996 RMK A01 T01241089  RH  022%=      5-min Rain = 0
KONS 110515Z 01015KT 12/M09 A2996 RMK A01 T01241089  RH  022%=      5-min Rain = 0
KONS 110520Z 01016G21KT 12/M09 A2996 RMK A01 T01241085  RH  023%=      5-min Rain = 0
KONS 110525Z 01019G24KT 13/M08 A2997 RMK A01 T01261079  RH  023%=      5-min Rain = 0
KONS 110530Z 01020KT 13/M07 A2997 RMK A01 T01281074  RH  024%=      5-min Rain = 0
KONS 110535Z 01026G37KT 13/M07 A2997 RMK A01 T01261071  RH  025%=      5-min Rain = 0
KONS 110540Z 02027G33KT 13/M07 A2997 RMK A01 T01251070  RH  025%=      5-min Rain = 0
KONS 110545Z 03031G40KT 12/M07 A2996 RMK A01 T01241069  RH  026%=      5-min Rain = 0
KONS 110550Z 03032G41KT 12/M07 A2996 RMK A01 T01231067  RH  026%=      5-min Rain = 0
KONS 110555Z 03032G39KT 12/M07 A2997 RMK A01 T01211066  RH  027%=      5-min Rain = 0

Page generated in 0.0555 seconds.